Time;durP1;ratioP1;P1;durP2;ratioP2;P2;SDS_P1;SDS_P2;PMS_P1;PMS_P2;Temp;Humidity;BMP_temperature;BMP_pressure;BME280_temperature;BME280_humidity;BME280_pressure;Samples;Min_cycle;Max_cycle;Signal;HPM_P1;HPM_P2
2022/09/19 00:00:13;;;;;;;10.32;4.60;;;;;;;-141.48;100.00;69781.59;5207050;28;20398;-67
2022/09/19 00:02:44;;;;;;;6.40;5.75;;;;;;;-141.48;100.00;69781.59;5206959;28;20029;-66
2022/09/19 00:05:15;;;;;;;5.18;4.20;;;;;;;-141.48;100.00;69781.59;5206376;28;20057;-66
2022/09/19 00:07:47;;;;;;;5.20;4.90;;;;;;;-141.48;100.00;69781.59;5207459;28;20030;-67
2022/09/19 00:10:18;;;;;;;5.13;4.63;;;;;;;-141.48;100.00;69781.59;5207313;28;20104;-67
2022/09/19 00:12:48;;;;;;;7.93;4.45;;;;;;;-141.48;100.00;69781.59;5207144;28;20135;-68
2022/09/19 00:15:18;;;;;;;4.75;3.80;;;;;;;-141.48;100.00;69781.59;5188706;28;20547;-68
2022/09/19 00:17:50;;;;;;;4.70;4.40;;;;;;;-141.48;100.00;69781.59;5207101;28;20029;-66
2022/09/19 00:20:20;;;;;;;4.95;4.28;;;;;;;-141.48;100.00;69781.59;5207049;28;20399;-67
2022/09/19 00:25:40;;;;;;;7.32;5.75;;;;;;;-141.48;100.00;69781.59;5206211;28;20505;-68
2022/09/19 00:28:11;;;;;;;5.95;5.28;;;;;;;-141.48;100.00;69781.59;5206440;28;20111;-68
2022/09/19 00:30:41;;;;;;;6.85;4.93;;;;;;;-141.48;100.00;69781.59;5206609;28;20021;-72
2022/09/19 00:33:12;;;;;;;16.83;6.05;;;;;;;-141.48;100.00;69781.59;5206768;28;20420;-68
2022/09/19 00:35:42;;;;;;;5.38;4.95;;;;;;;-141.48;100.00;69781.59;5206237;28;20489;-67
2022/09/19 00:38:13;;;;;;;4.97;4.25;;;;;;;-141.48;100.00;69781.59;5205470;28;20113;-70
2022/09/19 00:40:43;;;;;;;7.05;4.43;;;;;;;-141.48;100.00;69781.59;5206320;28;20032;-68
2022/09/19 00:43:16;;;;;;;4.20;3.90;;;;;;;-141.48;100.00;69781.59;5188488;28;20021;-67
2022/09/19 00:45:47;;;;;;;4.85;4.22;;;;;;;-141.48;100.00;69781.59;5186219;28;20049;-67
2022/09/19 00:48:21;;;;;;;3.95;3.67;;;;;;;-141.48;100.00;69781.59;5202972;28;20064;-67
2022/09/19 00:50:53;;;;;;;9.93;5.47;;;;;;;-141.48;100.00;69781.59;5206318;28;20053;-68
2022/09/19 00:53:24;;;;;;;5.22;4.63;;;;;;;-141.48;100.00;69781.59;5205519;28;20021;-68
2022/09/19 00:55:55;;;;;;;4.25;4.00;;;;;;;-141.48;100.00;69781.59;5203949;28;20551;-67
2022/09/19 00:58:32;;;;;;;6.75;4.00;;;;;;;-141.48;100.00;69781.59;5206010;28;20021;-68
2022/09/19 01:01:02;;;;;;;8.88;4.70;;;;;;;-141.48;100.00;69781.59;5205295;28;20026;-68
2022/09/19 01:03:33;;;;;;;5.75;4.18;;;;;;;-141.48;100.00;69781.59;5205308;28;20892;-68
2022/09/19 01:06:15;;;;;;;5.95;4.05;;;;;;;-141.48;100.00;69781.59;5205929;28;20536;-68
2022/09/19 01:08:58;;;;;;;3.95;3.70;;;;;;;-141.48;100.00;69781.59;5205983;28;20036;-67
2022/09/19 01:12:13;;;;;;;7.60;5.07;;;;;;;-141.48;100.00;69781.59;5205995;28;20030;-68
2022/09/19 01:15:14;;;;;;;4.88;4.47;;;;;;;-141.48;100.00;69781.59;5205139;28;20029;-67
2022/09/19 01:17:53;;;;;;;7.38;5.05;;;;;;;-141.48;100.00;69781.59;5205857;28;20060;-65
2022/09/19 01:20:33;;;;;;;5.65;3.95;;;;;;;-141.48;100.00;69781.59;5205817;28;20501;-67
2022/09/19 01:23:21;;;;;;;5.55;5.15;;;;;;;-141.48;100.00;69781.59;5205481;28;20386;-67
2022/09/19 01:26:11;;;;;;;4.50;4.15;;;;;;;-141.48;100.00;69781.59;5205491;28;20052;-67
2022/09/19 01:28:50;;;;;;;8.45;4.72;;;;;;;-141.48;100.00;69781.59;5205433;28;20390;-68
2022/09/19 01:31:34;;;;;;;4.63;4.32;;;;;;;-141.48;100.00;69781.59;5187717;28;20499;-68
2022/09/19 01:34:12;;;;;;;7.13;5.00;;;;;;;-141.48;100.00;69781.59;5204451;28;20037;-68
2022/09/19 01:36:48;;;;;;;4.93;4.63;;;;;;;-141.48;100.00;69781.59;5187376;28;20029;-68
2022/09/19 01:39:24;;;;;;;13.35;5.53;;;;;;;-141.48;100.00;69781.59;5205081;28;20032;-68
2022/09/19 01:41:58;;;;;;;3.65;3.47;;;;;;;-141.48;100.00;69781.59;5205267;28;20037;-68
2022/09/19 01:44:31;;;;;;;5.20;4.28;;;;;;;-141.48;100.00;69781.59;5204260;28;20497;-68
2022/09/19 01:47:15;;;;;;;4.97;4.57;;;;;;;-141.48;100.00;69781.59;5205270;28;20025;-68
2022/09/19 01:49:59;;;;;;;12.73;4.35;;;;;;;-141.48;100.00;69781.59;5187482;28;20489;-66
2022/09/19 01:52:48;;;;;;;6.50;4.40;;;;;;;-141.48;100.00;69781.59;5205105;28;20021;-66
2022/09/19 01:55:41;;;;;;;6.18;4.65;;;;;;;-141.48;100.00;69781.59;5204252;28;20021;-67
2022/09/19 01:58:28;;;;;;;5.55;5.07;;;;;;;-141.48;100.00;69781.59;5204867;28;20026;-67
2022/09/19 02:01:07;;;;;;;4.50;4.10;;;;;;;-141.48;100.00;69781.59;5187149;28;20017;-66
2022/09/19 02:03:46;;;;;;;5.35;4.95;;;;;;;-141.48;100.00;69781.59;5186025;28;20021;-68
2022/09/19 02:06:42;;;;;;;4.10;3.70;;;;;;;-141.48;100.00;69781.59;5204864;28;20033;-67
2022/09/19 02:09:26;;;;;;;4.18;3.80;;;;;;;-141.48;100.00;69781.59;5204639;28;20101;-68
2022/09/19 02:12:01;;;;;;;8.13;4.63;;;;;;;-141.48;100.00;69781.59;5203647;28;20472;-67
2022/09/19 02:14:34;;;;;;;8.45;5.32;;;;;;;-141.48;100.00;69781.59;5203806;28;20033;-68
2022/09/19 02:17:14;;;;;;;8.88;5.20;;;;;;;-141.48;100.00;69781.59;5204519;28;20164;-68
2022/09/19 02:19:59;;;;;;;9.27;5.10;;;;;;;-141.48;100.00;69781.59;5204242;28;20071;-68
2022/09/19 02:22:35;;;;;;;9.27;4.13;;;;;;;-141.48;100.00;69781.59;5204547;28;20029;-68
2022/09/19 02:25:11;;;;;;;9.55;4.50;;;;;;;-141.48;100.00;69781.59;5203653;28;20036;-68
2022/09/19 02:27:49;;;;;;;5.75;3.88;;;;;;;-141.48;100.00;69781.59;5204308;28;20716;-68
2022/09/19 02:30:20;;;;;;;9.35;5.25;;;;;;;-141.48;100.00;69781.59;5203916;28;20632;-68
2022/09/19 02:32:52;;;;;;;20.17;6.07;;;;;;;-141.48;100.00;69781.59;5184159;28;20029;-68
2022/09/19 02:35:50;;;;;;;5.40;4.53;;;;;;;-141.48;100.00;69781.59;5203368;28;20021;-68
2022/09/19 02:38:33;;;;;;;5.18;4.75;;;;;;;-141.48;100.00;69781.59;5229933;22;20068;-65
2022/09/19 02:41:19;;;;;;;18.88;5.43;;;;;;;-141.48;100.00;69781.59;5221113;28;20025;-68
2022/09/19 02:44:01;;;;;;;8.50;3.55;;;;;;;-141.48;100.00;69781.59;5221077;28;20044;-67
2022/09/19 02:46:42;;;;;;;4.70;4.30;;;;;;;-141.48;100.00;69781.59;5222628;28;20032;-68
2022/09/19 02:49:20;;;;;;;7.70;5.50;;;;;;;-141.48;100.00;69781.59;5222656;28;20111;-67
2022/09/19 02:51:57;;;;;;;6.53;4.55;;;;;;;-141.48;100.00;69781.59;5222718;28;20025;-68
2022/09/19 02:54:32;;;;;;;4.10;3.83;;;;;;;-141.48;100.00;69781.59;5221150;28;20017;-67
2022/09/19 02:57:08;;;;;;;3.05;2.83;;;;;;;-141.48;100.00;69781.59;5222385;28;20126;-68
2022/09/19 02:59:41;;;;;;;4.65;4.35;;;;;;;-141.48;100.00;69781.59;5220990;28;20025;-68
2022/09/19 03:02:19;;;;;;;7.10;3.72;;;;;;;-141.48;100.00;69781.59;5221199;28;20523;-68
2022/09/19 03:05:08;;;;;;;3.95;3.50;;;;;;;-141.48;100.00;69781.59;5222051;28;20065;-68
2022/09/19 03:07:57;;;;;;;5.18;4.15;;;;;;;-141.48;100.00;69781.59;5222483;28;20115;-68
2022/09/19 03:10:32;;;;;;;7.93;3.95;;;;;;;-141.48;100.00;69781.59;5222172;28;20333;-68
2022/09/19 03:13:06;;;;;;;3.58;3.33;;;;;;;-141.48;100.00;69781.59;5222509;28;20492;-68
2022/09/19 03:15:47;;;;;;;17.08;4.22;;;;;;;-141.48;100.00;69781.59;5221907;28;20035;-68
2022/09/19 03:18:21;;;;;;;4.57;4.22;;;;;;;-141.48;100.00;69781.59;5222231;28;20036;-68
2022/09/19 03:21:01;;;;;;;4.47;3.40;;;;;;;-141.48;100.00;69781.59;5222610;28;20079;-68
2022/09/19 03:23:52;;;;;;;7.47;4.47;;;;;;;-141.48;100.00;69781.59;5221948;28;20515;-68
2022/09/19 03:26:28;;;;;;;4.25;3.85;;;;;;;-141.48;100.00;69781.59;5221781;28;20057;-68
2022/09/19 03:28:59;;;;;;;5.78;5.28;;;;;;;-141.48;100.00;69781.59;5222244;28;20391;-65
2022/09/19 03:31:30;;;;;;;6.22;4.80;;;;;;;-141.48;100.00;69781.59;5220868;28;20027;-68
2022/09/19 03:34:02;;;;;;;5.93;3.90;;;;;;;-141.48;100.00;69781.59;5221676;28;20485;-67
2022/09/19 03:36:33;;;;;;;7.15;3.63;;;;;;;-141.48;100.00;69781.59;5220948;28;20401;-67
2022/09/19 03:39:04;;;;;;;5.88;4.47;;;;;;;-141.48;100.00;69781.59;5221940;28;20040;-68
2022/09/19 03:44:13;;;;;;;6.45;3.33;;;;;;;-141.48;100.00;69781.59;5227477;28;20462;-81
2022/09/19 03:46:46;;;;;;;8.30;4.85;;;;;;;-141.48;100.00;69781.59;5230028;28;20036;-81
2022/09/19 03:49:17;;;;;;;5.35;4.53;;;;;;;-141.48;100.00;69781.59;5229402;28;20025;-81
2022/09/19 03:51:49;;;;;;;17.55;5.35;;;;;;;-141.48;100.00;69781.59;5227630;28;20021;-81
2022/09/19 03:54:19;;;;;;;4.38;4.03;;;;;;;-141.48;100.00;69781.59;5207343;28;20081;-82
2022/09/19 03:56:49;;;;;;;10.50;5.28;;;;;;;-141.48;100.00;69781.59;5208797;28;20029;-82
2022/09/19 03:59:20;;;;;;;6.20;5.05;;;;;;;-141.48;100.00;69781.59;5208609;28;20142;-80
2022/09/19 04:01:54;;;;;;;5.65;4.38;;;;;;;-141.48;100.00;69781.59;5207152;28;20032;-80
2022/09/19 04:04:25;;;;;;;4.20;3.90;;;;;;;-141.48;100.00;69781.59;5206364;28;20022;-80
2022/09/19 04:06:55;;;;;;;4.55;4.15;;;;;;;-141.48;100.00;69781.59;5208635;28;20026;-80
2022/09/19 04:09:26;;;;;;;5.45;5.05;;;;;;;-141.48;100.00;69781.59;5207678;28;20113;-80
2022/09/19 04:11:59;;;;;;;12.40;4.93;;;;;;;-141.48;100.00;69781.59;5209902;28;20026;-81
2022/09/19 04:14:30;;;;;;;16.95;5.38;;;;;;;-141.48;100.00;69781.59;5208267;28;20052;-79
2022/09/19 04:17:00;;;;;;;11.27;4.57;;;;;;;-141.48;100.00;69781.59;5207525;28;20025;-79
2022/09/19 04:19:31;;;;;;;8.98;4.70;;;;;;;-141.48;100.00;69781.59;5210476;28;20033;-80
2022/09/19 04:22:01;;;;;;;8.68;4.65;;;;;;;-141.48;100.00;69781.59;5211835;28;20021;-80
2022/09/19 04:24:32;;;;;;;5.57;5.15;;;;;;;-141.48;100.00;69781.59;5207703;28;20048;-79
2022/09/19 04:27:20;;;;;;;14.88;5.18;;;;;;;-141.48;100.00;69781.59;5207349;28;20052;-80
2022/09/19 04:29:51;;;;;;;5.32;4.82;;;;;;;-141.48;100.00;69781.59;5207420;28;20029;-82
2022/09/19 04:32:22;;;;;;;7.82;4.75;;;;;;;-141.48;100.00;69781.59;5208939;28;20502;-80
2022/09/19 04:34:55;;;;;;;9.65;5.53;;;;;;;-141.48;100.00;69781.59;5207783;28;20041;-81
2022/09/19 04:37:26;;;;;;;9.00;4.97;;;;;;;-141.48;100.00;69781.59;5211037;28;20024;-81
2022/09/19 04:39:57;;;;;;;8.75;5.93;;;;;;;-141.48;100.00;69781.59;5210614;28;20043;-80
2022/09/19 04:42:27;;;;;;;4.93;4.05;;;;;;;-141.48;100.00;69781.59;5211485;28;20120;-80
2022/09/19 04:44:57;;;;;;;5.50;5.13;;;;;;;-141.48;100.00;69781.59;5208360;28;20039;-80
2022/09/19 04:47:28;;;;;;;8.30;4.82;;;;;;;-141.48;100.00;69781.59;5209365;28;20084;-80
2022/09/19 04:49:59;;;;;;;4.40;4.07;;;;;;;-141.48;100.00;69781.59;5208578;28;20068;-80
2022/09/19 04:52:29;;;;;;;7.95;4.85;;;;;;;-141.48;100.00;69781.59;5210262;28;20017;-81
2022/09/19 04:55:00;;;;;;;7.93;5.25;;;;;;;-141.48;100.00;69781.59;5207131;28;20021;-81
2022/09/19 04:57:30;;;;;;;7.38;5.00;;;;;;;-141.48;100.00;69781.59;5209146;28;20048;-81
2022/09/19 05:00:01;;;;;;;7.72;6.97;;;;;;;-141.48;100.00;69781.59;5211159;28;20390;-81
2022/09/19 05:02:31;;;;;;;5.70;4.85;;;;;;;-141.48;100.00;69781.59;5211232;28;20028;-82
2022/09/19 05:05:04;;;;;;;8.02;5.18;;;;;;;-141.48;100.00;69781.59;5210336;28;20492;-81
2022/09/19 05:07:35;;;;;;;8.20;4.82;;;;;;;-141.48;100.00;69781.59;5210151;28;20135;-81
2022/09/19 05:10:06;;;;;;;12.82;5.43;;;;;;;-141.48;100.00;69781.59;5211732;28;20459;-82
2022/09/19 05:12:36;;;;;;;5.78;4.47;;;;;;;-141.48;100.00;69781.59;5210694;28;20052;-83
2022/09/19 05:15:07;;;;;;;14.02;6.20;;;;;;;-141.48;100.00;69781.59;5208995;28;20057;-81
2022/09/19 05:17:38;;;;;;;10.00;4.22;;;;;;;-141.48;100.00;69781.59;5211534;28;20052;-81
2022/09/19 05:20:08;;;;;;;10.77;5.82;;;;;;;-141.48;100.00;69781.59;5210849;28;20113;-82
2022/09/19 05:22:39;;;;;;;7.22;6.60;;;;;;;-141.48;100.00;69781.59;5209494;28;20025;-82
2022/09/19 05:25:09;;;;;;;6.80;5.97;;;;;;;-141.48;100.00;69781.59;5208307;28;20048;-81
2022/09/19 05:27:40;;;;;;;9.85;5.70;;;;;;;-141.48;100.00;69781.59;5210312;28;20032;-80
2022/09/19 05:30:14;;;;;;;5.97;5.10;;;;;;;-141.48;100.00;69781.59;5209024;28;20025;-81
2022/09/19 05:32:44;;;;;;;16.17;6.15;;;;;;;-141.48;100.00;69781.59;5206535;28;20124;-81
2022/09/19 05:35:15;;;;;;;14.05;7.50;;;;;;;-141.48;100.00;69781.59;5209290;28;20049;-82
2022/09/19 05:37:46;;;;;;;7.03;5.15;;;;;;;-141.48;100.00;69781.59;5208010;28;20052;-82
2022/09/19 05:40:16;;;;;;;16.95;6.45;;;;;;;-141.48;100.00;69781.59;5210018;28;20113;-81
2022/09/19 05:42:47;;;;;;;7.47;5.65;;;;;;;-141.48;100.00;69781.59;5210080;28;20044;-81
2022/09/19 05:45:20;;;;;;;11.07;7.45;;;;;;;-141.48;100.00;69781.59;5210606;28;20033;-82
2022/09/19 05:48:00;;;;;;;13.73;6.75;;;;;;;-141.48;100.00;69781.59;5209559;28;20029;-82
2022/09/19 05:50:31;;;;;;;6.53;6.00;;;;;;;-141.48;100.00;69781.59;5209986;28;20109;-83
2022/09/19 05:55:51;;;;;;;8.27;5.97;;;;;;;-141.48;100.00;69781.59;5210675;28;20060;-82
2022/09/19 05:58:21;;;;;;;10.27;6.25;;;;;;;-141.48;100.00;69781.59;5211172;28;20027;-81
2022/09/19 06:03:59;;;;;;;11.18;6.75;;;;;;;-141.48;100.00;69781.59;5505360;22;20083;-81
2022/09/19 06:06:30;;;;;;;12.60;6.63;;;;;;;-141.48;100.00;69781.59;5213163;28;20028;-82
2022/09/19 06:09:02;;;;;;;12.70;5.97;;;;;;;-141.48;100.00;69781.59;5233581;28;20035;-86
2022/09/19 06:11:33;;;;;;;13.13;6.75;;;;;;;-141.48;100.00;69781.59;5217091;28;20033;-85
2022/09/19 06:14:15;;;;;;;13.55;7.57;;;;;;;-141.48;100.00;69781.59;5234227;28;20033;-85
2022/09/19 06:16:45;;;;;;;14.75;8.38;;;;;;;-141.48;100.00;69781.59;5216557;28;20028;-87
2022/09/19 06:19:16;;;;;;;14.18;5.85;;;;;;;-141.48;100.00;69781.59;5234563;28;20025;-88
2022/09/19 06:21:46;;;;;;;8.40;5.95;;;;;;;-141.48;100.00;69781.59;5234436;28;20484;-88
2022/09/19 06:24:17;;;;;;;12.20;7.20;;;;;;;-141.48;100.00;69781.59;5216048;28;20029;-86
2022/09/19 06:26:47;;;;;;;13.90;6.25;;;;;;;-141.48;100.00;69781.59;5233432;28;20051;-87
2022/09/19 06:29:17;;;;;;;6.43;4.82;;;;;;;-141.48;100.00;69781.59;5215812;28;20078;-87
2022/09/19 06:31:48;;;;;;;21.13;7.05;;;;;;;-141.48;100.00;69781.59;5233382;28;20029;-85
2022/09/19 06:34:18;;;;;;;12.75;6.47;;;;;;;-141.48;100.00;69781.59;5234075;28;20028;-84
2022/09/19 06:36:48;;;;;;;8.98;6.47;;;;;;;-141.48;100.00;69781.59;5216178;28;20020;-84
2022/09/19 06:39:19;;;;;;;7.05;6.10;;;;;;;-141.48;100.00;69781.59;5236373;28;20409;-86
2022/09/19 06:41:49;;;;;;;18.38;6.90;;;;;;;-141.48;100.00;69781.59;5218557;28;20106;-85
2022/09/19 06:44:22;;;;;;;16.95;7.15;;;;;;;-141.48;100.00;69781.59;5238433;28;20103;-84
2022/09/19 06:47:00;;;;;;;8.68;5.65;;;;;;;-141.48;100.00;69781.59;5219149;28;20017;-85
2022/09/19 06:49:30;;;;;;;7.47;5.18;;;;;;;-141.48;100.00;69781.59;5220653;28;20043;-86
2022/09/19 06:52:02;;;;;;;5.43;4.90;;;;;;;-141.48;100.00;69781.59;5221635;28;20021;-86
2022/09/19 06:54:42;;;;;;;18.65;4.63;;;;;;;-141.48;100.00;69781.59;5215105;28;20060;-85
2022/09/19 06:57:12;;;;;;;20.65;8.57;;;;;;;-141.48;100.00;69781.59;5236896;28;20550;-85
2022/09/19 06:59:42;;;;;;;13.05;7.22;;;;;;;-141.48;100.00;69781.59;5233342;28;20064;-85
2022/09/19 07:02:13;;;;;;;13.80;7.55;;;;;;;-141.48;100.00;69781.59;5215826;28;20083;-87
2022/09/19 07:04:44;;;;;;;8.45;7.57;;;;;;;-141.48;100.00;69781.59;5235404;28;20433;-87
2022/09/19 07:07:15;;;;;;;9.98;8.98;;;;;;;-141.48;100.00;69781.59;5240105;28;20017;-87
2022/09/19 07:09:45;;;;;;;8.98;6.47;;;;;;;-141.48;100.00;69781.59;5231269;28;20031;-86
2022/09/19 07:12:15;;;;;;;5.82;5.32;;;;;;;-141.48;100.00;69781.59;5249850;28;20029;-86
2022/09/19 07:14:46;;;;;;;9.20;6.65;;;;;;;-141.48;100.00;69781.59;5249565;28;20037;-86
2022/09/19 07:17:17;;;;;;;21.45;6.03;;;;;;;-141.48;100.00;69781.59;5231235;28;20040;-88
2022/09/19 07:19:47;;;;;;;5.75;5.20;;;;;;;-141.48;100.00;69781.59;5229591;28;20064;-87
2022/09/19 07:22:19;;;;;;;7.85;7.25;;;;;;;-141.48;100.00;69781.59;5216098;28;20461;-80
2022/09/19 07:24:49;;;;;;;12.93;5.82;;;;;;;-141.48;100.00;69781.59;5228198;28;20020;-80
2022/09/19 07:27:20;;;;;;;20.50;6.00;;;;;;;-141.48;100.00;69781.59;5229676;28;20021;-80
2022/09/19 07:29:50;;;;;;;10.75;5.65;;;;;;;-141.48;100.00;69781.59;5230897;28;20497;-81
2022/09/19 07:32:20;;;;;;;5.45;4.80;;;;;;;-141.48;100.00;69781.59;5230304;28;20112;-80
2022/09/19 07:34:51;;;;;;;7.57;6.75;;;;;;;-141.48;100.00;69781.59;5211482;28;20025;-81
2022/09/19 07:37:21;;;;;;;6.35;5.72;;;;;;;-141.48;100.00;69781.59;5232581;28;20017;-80
2022/09/19 07:39:52;;;;;;;8.73;5.80;;;;;;;-141.48;100.00;69781.59;5231668;28;20077;-84
2022/09/19 07:42:22;;;;;;;9.38;7.82;;;;;;;-141.48;100.00;69781.59;5231976;28;20029;-82
2022/09/19 07:44:53;;;;;;;10.48;6.20;;;;;;;-141.48;100.00;69781.59;5213115;28;20037;-81
2022/09/19 07:47:26;;;;;;;6.50;5.03;;;;;;;-141.48;100.00;69781.59;5231054;28;20025;-81
2022/09/19 07:49:57;;;;;;;18.67;5.90;;;;;;;-141.48;100.00;69781.59;5231503;28;20059;-84
2022/09/19 07:52:27;;;;;;;8.88;5.55;;;;;;;-141.48;100.00;69781.59;5213713;28;20025;-83
2022/09/19 07:54:57;;;;;;;10.23;5.10;;;;;;;-141.48;100.00;69781.59;5231583;28;20024;-81
2022/09/19 07:57:29;;;;;;;11.13;6.07;;;;;;;-141.48;100.00;69781.59;5231538;28;20465;-81
2022/09/19 08:00:00;;;;;;;5.82;5.15;;;;;;;-141.48;100.00;69781.59;5213948;28;20063;-83
2022/09/19 08:02:30;;;;;;;7.50;6.45;;;;;;;-141.48;100.00;69781.59;5231247;28;20105;-82
2022/09/19 08:05:01;;;;;;;6.32;4.47;;;;;;;-141.48;100.00;69781.59;5214126;28;20044;-84
2022/09/19 08:07:31;;;;;;;7.75;4.80;;;;;;;-141.48;100.00;69781.59;5233105;28;20036;-82
2022/09/19 08:10:02;;;;;;;11.57;4.57;;;;;;;-141.48;100.00;69781.59;5233514;28;20021;-83
2022/09/19 08:12:33;;;;;;;7.22;5.57;;;;;;;-141.48;100.00;69781.59;5243874;22;20063;-82
2022/09/19 08:15:04;;;;;;;7.45;3.28;;;;;;;-141.48;100.00;69781.59;5233673;28;20119;-82
2022/09/19 08:17:36;;;;;;;4.95;4.60;;;;;;;-141.48;100.00;69781.59;5236079;28;20031;-83
2022/09/19 08:20:07;;;;;;;8.27;4.10;;;;;;;-141.48;100.00;69781.59;5236398;28;20021;-82
2022/09/19 08:22:37;;;;;;;5.80;3.78;;;;;;;-141.48;100.00;69781.59;5233508;28;20174;-81
2022/09/19 08:25:07;;;;;;;3.97;3.65;;;;;;;-141.48;100.00;69781.59;5235427;28;20038;-81
2022/09/19 08:27:38;;;;;;;9.38;3.38;;;;;;;-141.48;100.00;69781.59;5236113;28;20029;-82
2022/09/19 08:30:09;;;;;;;19.08;4.97;;;;;;;-141.48;100.00;69781.59;5236985;28;20044;-83
2022/09/19 08:32:43;;;;;;;10.05;4.72;;;;;;;-141.48;100.00;69781.59;5237181;28;20173;-81
2022/09/19 08:35:15;;;;;;;5.50;3.10;;;;;;;-141.48;100.00;69781.59;5236245;28;20220;-83
2022/09/19 08:37:46;;;;;;;5.07;2.95;;;;;;;-141.48;100.00;69781.59;5234574;28;20020;-84
2022/09/19 08:41:02;;;;;;;6.60;3.63;;;;;;;-141.48;100.00;69781.59;5236767;28;20055;-83
2022/09/19 08:44:06;;;;;;;5.75;4.07;;;;;;;-141.48;100.00;69781.59;5189024;28;20380;-83
2022/09/19 08:47:02;;;;;;;6.97;3.45;;;;;;;-141.48;100.00;69781.59;5263446;22;20510;-67
2022/09/19 08:49:59;;;;;;;4.15;3.83;;;;;;;-141.48;100.00;69781.59;5189078;28;20067;-66
2022/09/19 08:52:53;;;;;;;9.23;3.75;;;;;;;-141.48;100.00;69781.59;5224525;28;20031;-66
2022/09/19 08:55:28;;;;;;;3.40;3.20;;;;;;;-141.48;100.00;69781.59;5213435;28;20041;-66
2022/09/19 08:58:06;;;;;;;9.77;4.18;;;;;;;-141.48;100.00;69781.59;5226047;28;20416;-66
2022/09/19 09:00:40;;;;;;;7.20;4.10;;;;;;;-141.48;100.00;69781.59;5208052;28;20029;-66
2022/09/19 09:03:24;;;;;;;5.55;3.72;;;;;;;-141.48;100.00;69781.59;5226184;28;20469;-66
2022/09/19 09:06:15;;;;;;;8.25;4.05;;;;;;;-141.48;100.00;69781.59;5226275;28;20123;-65
2022/09/19 09:09:03;;;;;;;4.75;3.28;;;;;;;-141.48;100.00;69781.59;5226049;28;20039;-65
2022/09/19 09:11:48;;;;;;;18.52;5.18;;;;;;;-141.48;100.00;69781.59;5226559;28;20328;-65
2022/09/19 09:14:19;;;;;;;13.82;5.75;;;;;;;-141.48;100.00;69781.59;5225962;28;20032;-65
2022/09/19 09:17:25;;;;;;;4.93;4.05;;;;;;;-141.48;100.00;69781.59;5226039;28;20028;-65
2022/09/19 09:20:02;;;;;;;8.55;5.32;;;;;;;-141.48;100.00;69781.59;5226371;28;20468;-65
2022/09/19 09:22:38;;;;;;;7.18;3.90;;;;;;;-141.48;100.00;69781.59;5225868;28;20637;-64
2022/09/19 09:25:29;;;;;;;3.33;2.95;;;;;;;-141.48;100.00;69781.59;5225454;28;20041;-65
2022/09/19 09:28:21;;;;;;;4.03;3.72;;;;;;;-141.48;100.00;69781.59;5225763;28;20481;-65
2022/09/19 09:31:12;;;;;;;8.05;4.88;;;;;;;-141.48;100.00;69781.59;5225712;28;20040;-64
2022/09/19 09:33:56;;;;;;;3.70;3.10;;;;;;;-141.48;100.00;69781.59;5225091;28;20017;-65
2022/09/19 09:36:33;;;;;;;9.98;3.92;;;;;;;-141.48;100.00;69781.59;5208102;28;20141;-64
2022/09/19 09:39:21;;;;;;;4.32;4.03;;;;;;;-141.48;100.00;69781.59;5225620;28;20025;-64
2022/09/19 09:41:59;;;;;;;15.80;4.03;;;;;;;-141.48;100.00;69781.59;5225689;28;20061;-64
2022/09/19 09:44:44;;;;;;;8.80;3.55;;;;;;;-141.48;100.00;69781.59;5225260;28;20055;-65
2022/09/19 09:47:24;;;;;;;4.45;3.55;;;;;;;-141.48;100.00;69781.59;5225761;28;20032;-64
2022/09/19 09:50:28;;;;;;;5.07;4.57;;;;;;;-141.48;100.00;69781.59;5226237;28;20029;-65
2022/09/19 09:53:29;;;;;;;6.05;2.65;;;;;;;-141.48;100.00;69781.59;5222110;28;20035;-65
2022/09/19 09:56:15;;;;;;;9.60;3.47;;;;;;;-141.48;100.00;69781.59;5226356;28;20098;-66
2022/09/19 10:03:33;;;;;;;4.40;3.47;;;;;;;-141.48;100.00;69781.59;5225899;28;20078;-67
2022/09/19 10:05:18;;;;;;;2.78;2.65;;;;;;;-141.48;100.00;69781.59;5225230;28;20052;-65
2022/09/19 10:08:14;;;;;;;2.15;2.05;;;;;;;-141.48;100.00;69781.59;5225510;28;20025;-66
2022/09/19 10:10:46;;;;;;;2.50;1.88;;;;;;;-141.48;100.00;69781.59;5225686;28;20028;-65
2022/09/19 10:13:27;;;;;;;6.03;2.75;;;;;;;-141.48;100.00;69781.59;5225549;28;20116;-65
2022/09/19 10:16:02;;;;;;;7.13;3.25;;;;;;;-141.48;100.00;69781.59;5225659;28;20024;-65
2022/09/19 10:18:46;;;;;;;2.85;2.58;;;;;;;-141.48;100.00;69781.59;5207976;28;20087;-65
2022/09/19 10:21:17;;;;;;;7.63;2.30;;;;;;;-141.48;100.00;69781.59;5225174;28;20484;-66
2022/09/19 10:23:48;;;;;;;5.32;1.92;;;;;;;-141.48;100.00;69781.59;5224628;28;20087;-66
2022/09/19 10:26:27;;;;;;;3.83;2.05;;;;;;;-141.48;100.00;69781.59;5225818;28;20040;-66
2022/09/19 10:29:00;;;;;;;2.70;2.58;;;;;;;-141.48;100.00;69781.59;5225195;28;20027;-65
2022/09/19 10:31:40;;;;;;;7.65;3.03;;;;;;;-141.48;100.00;69781.59;5224640;28;20028;-68
2022/09/19 10:34:27;;;;;;;5.57;2.65;;;;;;;-141.48;100.00;69781.59;5223123;28;20028;-67
2022/09/19 10:37:02;;;;;;;4.32;2.75;;;;;;;-141.48;100.00;69781.59;5225044;28;20090;-67
2022/09/19 10:39:43;;;;;;;11.18;4.68;;;;;;;-141.48;100.00;69781.59;5224821;28;20021;-67
2022/09/19 10:42:30;;;;;;;2.92;2.78;;;;;;;-141.48;100.00;69781.59;5224985;28;20021;-67
2022/09/19 10:45:06;;;;;;;2.92;2.60;;;;;;;-141.48;100.00;69781.59;5224142;28;20035;-67
2022/09/19 10:47:36;;;;;;;2.35;1.95;;;;;;;-141.48;100.00;69781.59;5224932;28;20031;-66
2022/09/19 10:50:14;;;;;;;8.20;2.60;;;;;;;-141.48;100.00;69781.59;5206934;28;20025;-67
2022/09/19 10:52:48;;;;;;;3.95;2.05;;;;;;;-141.48;100.00;69781.59;5225122;28;20243;-67
2022/09/19 10:55:22;;;;;;;2.63;2.53;;;;;;;-141.48;100.00;69781.59;5224616;28;20214;-67
2022/09/19 10:58:03;;;;;;;6.07;2.60;;;;;;;-141.48;100.00;69781.59;5231145;28;20031;-67
2022/09/19 11:00:48;;;;;;;5.82;3.20;;;;;;;-141.48;100.00;69781.59;5224443;28;20063;-66
2022/09/19 11:03:25;;;;;;;1.70;1.60;;;;;;;-141.48;100.00;69781.59;5224395;28;20044;-66
2022/09/19 11:06:05;;;;;;;3.80;1.90;;;;;;;-141.48;100.00;69781.59;5206808;28;20511;-66
2022/09/19 11:08:48;;;;;;;3.47;2.10;;;;;;;-141.48;100.00;69781.59;5224220;28;20033;-66
2022/09/19 11:11:37;;;;;;;2.80;1.73;;;;;;;-141.48;100.00;69781.59;5224323;28;20028;-66
2022/09/19 11:14:22;;;;;;;8.60;1.90;;;;;;;-141.48;100.00;69781.59;5223311;28;20113;-66
2022/09/19 11:16:57;;;;;;;3.00;2.80;;;;;;;-141.48;100.00;69781.59;5224329;28;20083;-66
2022/09/19 11:19:49;;;;;;;2.00;1.58;;;;;;;-141.48;100.00;69781.59;5223938;28;20029;-66
2022/09/19 11:22:33;;;;;;;15.10;3.15;;;;;;;-141.48;100.00;69781.59;5223940;28;20074;-66
2022/09/19 11:25:22;;;;;;;2.28;1.42;;;;;;;-141.48;100.00;69781.59;5223913;28;20447;-66
2022/09/19 11:28:21;;;;;;;3.87;2.37;;;;;;;-141.48;100.00;69781.59;5227330;28;20115;-66
2022/09/19 11:31:20;;;;;;;2.20;2.10;;;;;;;-141.48;100.00;69781.59;5244371;28;20794;-67
2022/09/19 11:34:02;;;;;;;2.22;1.73;;;;;;;-141.48;100.00;69781.59;5242546;28;20536;-66
2022/09/19 11:37:19;;;;;;;12.90;2.45;;;;;;;-141.48;100.00;69781.59;5244489;28;20024;-66
2022/09/19 11:40:11;;;;;;;3.85;2.17;;;;;;;-141.48;100.00;69781.59;5224139;28;20032;-66
2022/09/19 11:42:59;;;;;;;4.32;2.28;;;;;;;-141.48;100.00;69781.59;5243066;28;20033;-66
2022/09/19 11:45:50;;;;;;;1.35;1.35;;;;;;;-141.48;100.00;69781.59;5249571;28;20068;-66
2022/09/19 11:49:07;;;;;;;4.47;2.70;;;;;;;-141.48;100.00;69781.59;5251035;28;20032;-67
2022/09/19 11:51:56;;;;;;;5.60;2.42;;;;;;;-141.48;100.00;69781.59;5248274;28;20033;-67
2022/09/19 11:54:57;;;;;;;2.10;1.92;;;;;;;-141.48;100.00;69781.59;5250981;28;20039;-67
2022/09/19 11:57:48;;;;;;;1.98;1.80;;;;;;;-141.48;100.00;69781.59;5251464;28;20024;-68
2022/09/19 12:00:21;;;;;;;1.23;1.23;;;;;;;-141.48;100.00;69781.59;5232975;28;20124;-67
2022/09/19 12:02:53;;;;;;;1.30;1.30;;;;;;;-141.48;100.00;69781.59;5251425;28;20021;-66
2022/09/19 12:05:42;;;;;;;4.60;2.60;;;;;;;-141.48;100.00;69781.59;5250752;28;20039;-66